Poplarville, MS

7:21 AM CST on December 29, 2014 (GMT -0600)
Pearl River County EOC | Change Station
CLOSE
Current Station
Personal Weather Station
Location: Poplarville, MS
Elevation: 305 ft
Nearby Weather Stations
Active Advisory: Flood Warning

Elev 305 ft 30.83 °N, 89.54 °W | Updated 2 seconds ago

Overcast
Overcast
49.8 °F
Feels Like 48 °F
N
4.6
Wind Variable Wind from NNW
Gusts 4.6 mph

Today
High -- | Low -- °F
--% Chance of Precip.
Yesterday
High -- | Low -- °F
Precip. -- in
6:55 AM 5:05 PM
First Quarter, 59% visible
Pressure 30.13 in
Visibility 5.0 miles
Clouds Overcast 200 ft
Windchill 48 °F
Dew Point 50 °F
Humidity 100%
Rainfall 0.00 in
Snow Depth Not available.
UV 0 out of 12
Pollen 4.30 out of 12
Air Quality Not available.
Flu Activity Not available.
METAR KHBG 291253Z AUTO 32004KT 5SM BR OVC002 11/11 A3014 RMK AO2 SLP203 T01110106

More Conditions Fewer Conditions

Pressure 30.13 in
Visibility 5.0 miles
Clouds Overcast 200 ft
Windchill 48 °F
Dew Point 50 °F
Humidity 100%
Rainfall 0.00 in
Snow Depth Not available.
UV 0 out of 12
Pollen 4.30 out of 12
Air Quality Not available.
Flu Activity Not available.
METAR KHBG 291253Z AUTO 32004KT 5SM BR OVC002 11/11 A3014 RMK AO2 SLP203 T01110106

More Conditions Fewer Conditions

10-Day Weather Forecast

Almanac

Astronomy

Dec. 29, 2014 Rise Set
Actual Time
Civil Twilight
Nautical Twilight
Astronomical Twilight
Moon
Length of Visible Light
Length of Day
Tomorrow will be .
, % of the Moon is Illuminated

Today's Extremes

State Highs State Lows

Community

WunderPhotos

Upload Photos

1,781,579 photos uploaded!

WunderBlogs® & News

Nearby

Air Quality

  Air Quality AQ Index Pollutant
Not available.

Snow Depth

Station Depth Elevation

Earthquake Activity

City Distance Mag. Time & Date
Minimum magnitude displayed is 2.5.

Coastal Water Temperatures

Place Temperature

Nearby Weather Stations